sensor_id;sensor_type;location;lat;lon;timestamp;P1;durP1;ratioP1;P2;durP2;ratioP2
64738;SDS011;51175;51.186;0.276;2023-12-04T00:00:05;10.02;;;5.13;;
64738;SDS011;51175;51.186;0.276;2023-12-04T00:00:37;14.20;;;5.65;;
64738;SDS011;51175;51.186;0.276;2023-12-04T00:01:18;13.57;;;5.18;;
64738;SDS011;51175;51.186;0.276;2023-12-04T00:01:49;13.82;;;4.90;;
64738;SDS011;51175;51.186;0.276;2023-12-04T00:02:20;15.02;;;5.68;;
64738;SDS011;51175;51.186;0.276;2023-12-04T00:02:50;9.07;;;4.10;;
64738;SDS011;51175;51.186;0.276;2023-12-04T00:03:20;14.73;;;5.68;;
64738;SDS011;51175;51.186;0.276;2023-12-04T00:03:51;19.30;;;5.63;;
64738;SDS011;51175;51.186;0.276;2023-12-04T00:04:23;14.30;;;5.82;;
64738;SDS011;51175;51.186;0.276;2023-12-04T00:04:55;12.63;;;5.10;;
64738;SDS011;51175;51.186;0.276;2023-12-04T00:05:33;15.60;;;4.85;;
64738;SDS011;51175;51.186;0.276;2023-12-04T00:06:03;11.65;;;5.35;;
64738;SDS011;51175;51.186;0.276;2023-12-04T00:06:34;12.88;;;4.93;;
64738;SDS011;51175;51.186;0.276;2023-12-04T00:07:06;11.23;;;5.15;;
64738;SDS011;51175;51.186;0.276;2023-12-04T00:07:36;12.10;;;4.75;;
64738;SDS011;51175;51.186;0.276;2023-12-04T00:08:07;16.40;;;5.78;;
64738;SDS011;51175;51.186;0.276;2023-12-04T00:08:37;13.30;;;6.03;;
64738;SDS011;51175;51.186;0.276;2023-12-04T00:09:10;18.30;;;6.72;;
64738;SDS011;51175;51.186;0.276;2023-12-04T00:09:41;14.32;;;5.63;;
64738;SDS011;51175;51.186;0.276;2023-12-04T00:10:12;10.63;;;5.75;;
64738;SDS011;51175;51.186;0.276;2023-12-04T00:10:42;15.60;;;5.70;;
64738;SDS011;51175;51.186;0.276;2023-12-04T00:11:13;13.52;;;5.93;;
64738;SDS011;51175;51.186;0.276;2023-12-04T00:11:43;14.77;;;5.40;;
64738;SDS011;51175;51.186;0.276;2023-12-04T00:12:15;15.48;;;5.63;;
64738;SDS011;51175;51.186;0.276;2023-12-04T00:12:45;12.65;;;5.78;;
64738;SDS011;51175;51.186;0.276;2023-12-04T00:13:15;12.20;;;4.38;;
64738;SDS011;51175;51.186;0.276;2023-12-04T00:13:46;8.30;;;4.38;;
64738;SDS011;51175;51.186;0.276;2023-12-04T00:14:17;12.85;;;4.22;;
64738;SDS011;51175;51.186;0.276;2023-12-04T00:14:48;12.60;;;5.60;;
64738;SDS011;51175;51.186;0.276;2023-12-04T00:15:19;12.00;;;5.10;;
64738;SDS011;51175;51.186;0.276;2023-12-04T00:15:51;16.33;;;6.35;;
64738;SDS011;51175;51.186;0.276;2023-12-04T00:16:21;21.83;;;6.00;;
64738;SDS011;51175;51.186;0.276;2023-12-04T00:16:52;12.77;;;5.07;;
64738;SDS011;51175;51.186;0.276;2023-12-04T00:17:22;10.93;;;5.00;;
64738;SDS011;51175;51.186;0.276;2023-12-04T00:17:53;10.52;;;5.88;;
64738;SDS011;51175;51.186;0.276;2023-12-04T00:18:23;10.82;;;4.60;;
64738;SDS011;51175;51.186;0.276;2023-12-04T00:18:54;9.80;;;5.28;;
64738;SDS011;51175;51.186;0.276;2023-12-04T00:19:24;19.13;;;4.78;;
64738;SDS011;51175;51.186;0.276;2023-12-04T00:19:55;12.70;;;5.05;;
64738;SDS011;51175;51.186;0.276;2023-12-04T00:20:30;9.90;;;5.28;;
64738;SDS011;51175;51.186;0.276;2023-12-04T00:21:00;17.73;;;5.00;;
64738;SDS011;51175;51.186;0.276;2023-12-04T00:21:31;17.67;;;5.95;;
64738;SDS011;51175;51.186;0.276;2023-12-04T00:22:01;16.05;;;6.32;;
64738;SDS011;51175;51.186;0.276;2023-12-04T00:22:32;12.90;;;4.55;;
64738;SDS011;51175;51.186;0.276;2023-12-04T00:23:02;14.45;;;6.15;;
64738;SDS011;51175;51.186;0.276;2023-12-04T00:23:33;15.35;;;4.82;;
64738;SDS011;51175;51.186;0.276;2023-12-04T00:24:04;9.32;;;4.35;;
64738;SDS011;51175;51.186;0.276;2023-12-04T00:24:34;14.80;;;5.35;;
64738;SDS011;51175;51.186;0.276;2023-12-04T00:25:05;11.75;;;4.65;;
64738;SDS011;51175;51.186;0.276;2023-12-04T00:25:36;10.95;;;4.60;;
64738;SDS011;51175;51.186;0.276;2023-12-04T00:26:07;17.60;;;5.65;;
64738;SDS011;51175;51.186;0.276;2023-12-04T00:26:38;12.88;;;5.05;;
64738;SDS011;51175;51.186;0.276;2023-12-04T00:27:08;12.07;;;4.40;;
64738;SDS011;51175;51.186;0.276;2023-12-04T00:27:39;14.32;;;5.03;;
64738;SDS011;51175;51.186;0.276;2023-12-04T00:28:09;14.20;;;4.88;;
64738;SDS011;51175;51.186;0.276;2023-12-04T00:28:40;16.23;;;4.47;;
64738;SDS011;51175;51.186;0.276;2023-12-04T00:29:10;11.48;;;4.43;;
64738;SDS011;51175;51.186;0.276;2023-12-04T00:29:41;10.50;;;5.05;;
64738;SDS011;51175;51.186;0.276;2023-12-04T00:30:11;12.93;;;5.20;;
64738;SDS011;51175;51.186;0.276;2023-12-04T00:30:42;15.43;;;5.22;;
64738;SDS011;51175;51.186;0.276;2023-12-04T00:31:12;10.10;;;4.13;;
64738;SDS011;51175;51.186;0.276;2023-12-04T00:31:43;13.27;;;5.03;;
64738;SDS011;51175;51.186;0.276;2023-12-04T00:32:14;12.57;;;4.72;;
64738;SDS011;51175;51.186;0.276;2023-12-04T00:32:45;14.35;;;4.50;;
64738;SDS011;51175;51.186;0.276;2023-12-04T00:33:22;8.93;;;4.43;;
64738;SDS011;51175;51.186;0.276;2023-12-04T00:33:52;10.52;;;4.80;;
64738;SDS011;51175;51.186;0.276;2023-12-04T00:34:23;15.18;;;4.85;;
64738;SDS011;51175;51.186;0.276;2023-12-04T00:34:54;13.15;;;5.22;;
64738;SDS011;51175;51.186;0.276;2023-12-04T00:35:30;11.15;;;5.50;;
64738;SDS011;51175;51.186;0.276;2023-12-04T00:36:01;13.43;;;4.55;;
64738;SDS011;51175;51.186;0.276;2023-12-04T00:36:31;13.23;;;5.22;;
64738;SDS011;51175;51.186;0.276;2023-12-04T00:37:02;11.07;;;3.75;;
64738;SDS011;51175;51.186;0.276;2023-12-04T00:37:32;22.13;;;6.38;;
64738;SDS011;51175;51.186;0.276;2023-12-04T00:38:07;13.57;;;5.05;;
64738;SDS011;51175;51.186;0.276;2023-12-04T00:38:39;14.57;;;5.32;;
64738;SDS011;51175;51.186;0.276;2023-12-04T00:39:09;12.00;;;4.60;;
64738;SDS011;51175;51.186;0.276;2023-12-04T00:39:39;11.77;;;4.43;;
64738;SDS011;51175;51.186;0.276;2023-12-04T00:40:10;9.85;;;4.57;;
64738;SDS011;51175;51.186;0.276;2023-12-04T00:40:40;12.38;;;5.25;;
64738;SDS011;51175;51.186;0.276;2023-12-04T00:41:11;10.45;;;4.80;;
64738;SDS011;51175;51.186;0.276;2023-12-04T00:41:41;9.23;;;4.28;;
64738;SDS011;51175;51.186;0.276;2023-12-04T00:42:12;11.35;;;5.13;;
64738;SDS011;51175;51.186;0.276;2023-12-04T00:42:43;11.55;;;4.72;;
64738;SDS011;51175;51.186;0.276;2023-12-04T00:43:13;9.65;;;4.40;;
64738;SDS011;51175;51.186;0.276;2023-12-04T00:43:44;11.38;;;4.25;;
64738;SDS011;51175;51.186;0.276;2023-12-04T00:44:14;13.90;;;4.35;;
64738;SDS011;51175;51.186;0.276;2023-12-04T00:44:45;13.50;;;4.55;;
64738;SDS011;51175;51.186;0.276;2023-12-04T00:45:15;14.85;;;4.80;;
64738;SDS011;51175;51.186;0.276;2023-12-04T00:45:46;13.45;;;4.90;;
64738;SDS011;51175;51.186;0.276;2023-12-04T00:46:17;10.18;;;4.65;;
64738;SDS011;51175;51.186;0.276;2023-12-04T00:46:47;10.20;;;4.38;;
64738;SDS011;51175;51.186;0.276;2023-12-04T00:47:18;11.52;;;4.38;;
64738;SDS011;51175;51.186;0.276;2023-12-04T00:47:48;8.20;;;3.92;;
64738;SDS011;51175;51.186;0.276;2023-12-04T00:48:20;10.02;;;4.03;;
64738;SDS011;51175;51.186;0.276;2023-12-04T00:48:51;6.65;;;4.47;;
64738;SDS011;51175;51.186;0.276;2023-12-04T00:49:21;12.15;;;5.18;;
64738;SDS011;51175;51.186;0.276;2023-12-04T00:49:58;11.23;;;5.15;;
64738;SDS011;51175;51.186;0.276;2023-12-04T00:50:28;10.52;;;4.43;;
64738;SDS011;51175;51.186;0.276;2023-12-04T00:50:59;8.90;;;4.65;;
64738;SDS011;51175;51.186;0.276;2023-12-04T00:51:36;13.77;;;4.55;;
64738;SDS011;51175;51.186;0.276;2023-12-04T00:52:07;12.02;;;4.97;;
64738;SDS011;51175;51.186;0.276;2023-12-04T00:52:38;11.45;;;5.50;;
64738;SDS011;51175;51.186;0.276;2023-12-04T00:53:08;13.23;;;3.53;;
64738;SDS011;51175;51.186;0.276;2023-12-04T00:53:38;9.25;;;3.65;;
64738;SDS011;51175;51.186;0.276;2023-12-04T00:54:09;8.45;;;4.72;;
64738;SDS011;51175;51.186;0.276;2023-12-04T00:54:39;12.02;;;4.95;;
64738;SDS011;51175;51.186;0.276;2023-12-04T00:55:11;12.77;;;4.00;;
64738;SDS011;51175;51.186;0.276;2023-12-04T00:55:41;10.10;;;3.60;;
64738;SDS011;51175;51.186;0.276;2023-12-04T00:56:12;11.55;;;4.45;;
64738;SDS011;51175;51.186;0.276;2023-12-04T00:56:42;10.45;;;4.57;;
64738;SDS011;51175;51.186;0.276;2023-12-04T00:57:13;13.55;;;4.13;;
64738;SDS011;51175;51.186;0.276;2023-12-04T00:57:43;13.95;;;3.78;;
64738;SDS011;51175;51.186;0.276;2023-12-04T00:58:14;11.23;;;4.20;;
64738;SDS011;51175;51.186;0.276;2023-12-04T00:58:44;11.30;;;4.63;;
64738;SDS011;51175;51.186;0.276;2023-12-04T00:59:15;14.80;;;4.05;;
64738;SDS011;51175;51.186;0.276;2023-12-04T00:59:45;12.80;;;4.50;;
64738;SDS011;51175;51.186;0.276;2023-12-04T01:00:16;9.75;;;4.03;;
64738;SDS011;51175;51.186;0.276;2023-12-04T01:00:47;9.77;;;4.07;;
64738;SDS011;51175;51.186;0.276;2023-12-04T01:01:18;12.90;;;4.60;;
64738;SDS011;51175;51.186;0.276;2023-12-04T01:01:49;16.33;;;5.93;;
64738;SDS011;51175;51.186;0.276;2023-12-04T01:02:19;7.93;;;4.10;;
64738;SDS011;51175;51.186;0.276;2023-12-04T01:02:51;12.52;;;4.07;;
64738;SDS011;51175;51.186;0.276;2023-12-04T01:03:21;12.57;;;4.82;;
64738;SDS011;51175;51.186;0.276;2023-12-04T01:03:52;9.75;;;4.15;;
64738;SDS011;51175;51.186;0.276;2023-12-04T01:04:22;12.52;;;4.43;;
64738;SDS011;51175;51.186;0.276;2023-12-04T01:04:55;11.48;;;4.65;;
64738;SDS011;51175;51.186;0.276;2023-12-04T01:05:25;14.93;;;3.95;;
64738;SDS011;51175;51.186;0.276;2023-12-04T01:05:55;9.50;;;4.50;;
64738;SDS011;51175;51.186;0.276;2023-12-04T01:06:26;7.43;;;3.53;;
64738;SDS011;51175;51.186;0.276;2023-12-04T01:06:56;10.48;;;4.13;;
64738;SDS011;51175;51.186;0.276;2023-12-04T01:07:27;7.72;;;3.45;;
64738;SDS011;51175;51.186;0.276;2023-12-04T01:07:58;9.63;;;4.15;;
64738;SDS011;51175;51.186;0.276;2023-12-04T01:08:29;11.07;;;4.72;;
64738;SDS011;51175;51.186;0.276;2023-12-04T01:08:59;10.35;;;4.57;;
64738;SDS011;51175;51.186;0.276;2023-12-04T01:09:30;9.68;;;3.47;;
64738;SDS011;51175;51.186;0.276;2023-12-04T01:10:00;10.90;;;3.72;;
64738;SDS011;51175;51.186;0.276;2023-12-04T01:10:31;14.27;;;4.10;;
64738;SDS011;51175;51.186;0.276;2023-12-04T01:11:02;16.63;;;4.63;;
64738;SDS011;51175;51.186;0.276;2023-12-04T01:11:33;15.02;;;4.07;;
64738;SDS011;51175;51.186;0.276;2023-12-04T01:12:03;12.98;;;3.95;;
64738;SDS011;51175;51.186;0.276;2023-12-04T01:12:34;8.70;;;3.92;;
64738;SDS011;51175;51.186;0.276;2023-12-04T01:13:06;15.80;;;5.97;;
64738;SDS011;51175;51.186;0.276;2023-12-04T01:13:36;13.27;;;3.67;;
64738;SDS011;51175;51.186;0.276;2023-12-04T01:14:07;11.07;;;4.38;;
64738;SDS011;51175;51.186;0.276;2023-12-04T01:14:38;12.00;;;4.30;;
64738;SDS011;51175;51.186;0.276;2023-12-04T01:15:08;16.30;;;4.43;;
64738;SDS011;51175;51.186;0.276;2023-12-04T01:15:39;11.80;;;4.18;;
64738;SDS011;51175;51.186;0.276;2023-12-04T01:16:10;11.05;;;4.30;;
64738;SDS011;51175;51.186;0.276;2023-12-04T01:16:40;9.65;;;3.53;;
64738;SDS011;51175;51.186;0.276;2023-12-04T01:17:10;9.05;;;3.90;;
64738;SDS011;51175;51.186;0.276;2023-12-04T01:17:41;13.55;;;3.85;;
64738;SDS011;51175;51.186;0.276;2023-12-04T01:18:11;11.07;;;4.22;;
64738;SDS011;51175;51.186;0.276;2023-12-04T01:18:42;16.17;;;4.35;;
64738;SDS011;51175;51.186;0.276;2023-12-04T01:19:13;18.65;;;6.40;;
64738;SDS011;51175;51.186;0.276;2023-12-04T01:19:43;15.15;;;4.18;;
64738;SDS011;51175;51.186;0.276;2023-12-04T01:20:14;6.28;;;3.15;;
64738;SDS011;51175;51.186;0.276;2023-12-04T01:20:44;12.57;;;4.85;;
64738;SDS011;51175;51.186;0.276;2023-12-04T01:21:15;9.13;;;3.50;;
64738;SDS011;51175;51.186;0.276;2023-12-04T01:21:46;10.95;;;4.03;;
64738;SDS011;51175;51.186;0.276;2023-12-04T01:22:18;12.35;;;4.75;;
64738;SDS011;51175;51.186;0.276;2023-12-04T01:22:48;8.48;;;3.50;;
64738;SDS011;51175;51.186;0.276;2023-12-04T01:23:18;7.55;;;3.22;;
64738;SDS011;51175;51.186;0.276;2023-12-04T01:23:49;9.55;;;4.15;;
64738;SDS011;51175;51.186;0.276;2023-12-04T01:24:19;8.73;;;3.10;;
64738;SDS011;51175;51.186;0.276;2023-12-04T01:24:50;8.88;;;3.28;;
64738;SDS011;51175;51.186;0.276;2023-12-04T01:25:20;9.38;;;4.35;;
64738;SDS011;51175;51.186;0.276;2023-12-04T01:25:51;8.70;;;3.28;;
64738;SDS011;51175;51.186;0.276;2023-12-04T01:26:21;8.05;;;3.58;;
64738;SDS011;51175;51.186;0.276;2023-12-04T01:26:51;7.82;;;3.63;;
64738;SDS011;51175;51.186;0.276;2023-12-04T01:27:22;7.95;;;3.45;;
64738;SDS011;51175;51.186;0.276;2023-12-04T01:27:52;9.65;;;3.58;;
64738;SDS011;51175;51.186;0.276;2023-12-04T01:28:23;12.15;;;3.97;;
64738;SDS011;51175;51.186;0.276;2023-12-04T01:28:53;10.25;;;3.05;;
64738;SDS011;51175;51.186;0.276;2023-12-04T01:29:24;9.90;;;4.93;;
64738;SDS011;51175;51.186;0.276;2023-12-04T01:29:54;10.30;;;3.70;;
64738;SDS011;51175;51.186;0.276;2023-12-04T01:30:28;10.55;;;3.70;;
64738;SDS011;51175;51.186;0.276;2023-12-04T01:30:58;6.95;;;2.70;;
64738;SDS011;51175;51.186;0.276;2023-12-04T01:31:28;7.18;;;3.05;;
64738;SDS011;51175;51.186;0.276;2023-12-04T01:31:59;8.20;;;3.65;;
64738;SDS011;51175;51.186;0.276;2023-12-04T01:32:29;11.32;;;4.22;;
64738;SDS011;51175;51.186;0.276;2023-12-04T01:33:00;15.55;;;4.80;;
64738;SDS011;51175;51.186;0.276;2023-12-04T01:33:31;8.82;;;3.83;;
64738;SDS011;51175;51.186;0.276;2023-12-04T01:34:01;35.20;;;7.65;;
64738;SDS011;51175;51.186;0.276;2023-12-04T01:34:32;10.13;;;3.75;;
64738;SDS011;51175;51.186;0.276;2023-12-04T01:35:03;11.18;;;3.35;;
64738;SDS011;51175;51.186;0.276;2023-12-04T01:35:33;7.85;;;3.60;;
64738;SDS011;51175;51.186;0.276;2023-12-04T01:36:04;7.38;;;3.38;;
64738;SDS011;51175;51.186;0.276;2023-12-04T01:36:35;8.10;;;3.63;;
64738;SDS011;51175;51.186;0.276;2023-12-04T01:37:06;4.05;;;2.63;;
64738;SDS011;51175;51.186;0.276;2023-12-04T01:37:37;9.60;;;3.45;;
64738;SDS011;51175;51.186;0.276;2023-12-04T01:38:08;9.95;;;3.17;;
64738;SDS011;51175;51.186;0.276;2023-12-04T01:38:39;14.60;;;3.22;;
64738;SDS011;51175;51.186;0.276;2023-12-04T01:39:09;8.85;;;3.95;;
64738;SDS011;51175;51.186;0.276;2023-12-04T01:39:40;10.35;;;3.72;;
64738;SDS011;51175;51.186;0.276;2023-12-04T01:40:10;8.77;;;3.83;;
64738;SDS011;51175;51.186;0.276;2023-12-04T01:40:41;11.30;;;3.42;;
64738;SDS011;51175;51.186;0.276;2023-12-04T01:41:12;7.18;;;3.58;;
64738;SDS011;51175;51.186;0.276;2023-12-04T01:41:42;9.35;;;3.08;;
64738;SDS011;51175;51.186;0.276;2023-12-04T01:42:13;7.15;;;3.17;;
64738;SDS011;51175;51.186;0.276;2023-12-04T01:42:43;10.95;;;3.50;;
64738;SDS011;51175;51.186;0.276;2023-12-04T01:43:13;8.02;;;3.92;;
64738;SDS011;51175;51.186;0.276;2023-12-04T01:43:45;8.07;;;3.08;;
64738;SDS011;51175;51.186;0.276;2023-12-04T01:44:15;10.40;;;3.47;;
64738;SDS011;51175;51.186;0.276;2023-12-04T01:44:46;8.65;;;2.90;;
64738;SDS011;51175;51.186;0.276;2023-12-04T01:45:16;10.98;;;3.00;;
64738;SDS011;51175;51.186;0.276;2023-12-04T01:45:46;9.10;;;5.53;;
64738;SDS011;51175;51.186;0.276;2023-12-04T01:46:17;8.32;;;3.00;;
64738;SDS011;51175;51.186;0.276;2023-12-04T01:46:48;8.18;;;3.85;;
64738;SDS011;51175;51.186;0.276;2023-12-04T01:47:19;10.73;;;3.30;;
64738;SDS011;51175;51.186;0.276;2023-12-04T01:47:51;9.30;;;3.20;;
64738;SDS011;51175;51.186;0.276;2023-12-04T01:48:21;10.60;;;3.67;;
64738;SDS011;51175;51.186;0.276;2023-12-04T01:48:53;11.90;;;3.35;;
64738;SDS011;51175;51.186;0.276;2023-12-04T01:49:24;8.13;;;3.13;;
64738;SDS011;51175;51.186;0.276;2023-12-04T01:49:55;11.23;;;3.25;;
64738;SDS011;51175;51.186;0.276;2023-12-04T01:50:25;7.30;;;3.47;;
64738;SDS011;51175;51.186;0.276;2023-12-04T01:50:56;14.43;;;4.43;;
64738;SDS011;51175;51.186;0.276;2023-12-04T01:51:28;8.13;;;3.80;;
64738;SDS011;51175;51.186;0.276;2023-12-04T01:52:00;11.32;;;5.10;;
64738;SDS011;51175;51.186;0.276;2023-12-04T01:52:31;7.38;;;3.22;;
64738;SDS011;51175;51.186;0.276;2023-12-04T01:53:02;12.65;;;3.35;;
64738;SDS011;51175;51.186;0.276;2023-12-04T01:53:32;5.90;;;2.97;;
64738;SDS011;51175;51.186;0.276;2023-12-04T01:54:04;8.77;;;3.28;;
64738;SDS011;51175;51.186;0.276;2023-12-04T01:54:36;7.22;;;2.90;;
64738;SDS011;51175;51.186;0.276;2023-12-04T01:55:08;13.52;;;3.03;;
64738;SDS011;51175;51.186;0.276;2023-12-04T01:55:40;9.98;;;3.92;;
64738;SDS011;51175;51.186;0.276;2023-12-04T01:56:11;6.75;;;2.88;;
64738;SDS011;51175;51.186;0.276;2023-12-04T01:56:43;9.45;;;4.20;;
64738;SDS011;51175;51.186;0.276;2023-12-04T01:57:14;10.50;;;3.50;;
64738;SDS011;51175;51.186;0.276;2023-12-04T01:57:45;10.77;;;2.90;;
64738;SDS011;51175;51.186;0.276;2023-12-04T01:58:16;7.10;;;3.42;;
64738;SDS011;51175;51.186;0.276;2023-12-04T01:58:47;7.35;;;3.08;;
64738;SDS011;51175;51.186;0.276;2023-12-04T01:59:18;10.10;;;3.40;;
64738;SDS011;51175;51.186;0.276;2023-12-04T01:59:48;11.93;;;3.30;;
64738;SDS011;51175;51.186;0.276;2023-12-04T02:00:19;8.48;;;2.78;;
64738;SDS011;51175;51.186;0.276;2023-12-04T02:00:51;6.53;;;2.65;;
64738;SDS011;51175;51.186;0.276;2023-12-04T02:01:21;12.60;;;3.58;;
64738;SDS011;51175;51.186;0.276;2023-12-04T02:01:53;7.70;;;2.88;;
64738;SDS011;51175;51.186;0.276;2023-12-04T02:02:25;5.72;;;3.20;;
64738;SDS011;51175;51.186;0.276;2023-12-04T02:02:57;7.72;;;2.50;;
64738;SDS011;51175;51.186;0.276;2023-12-04T02:03:29;11.38;;;3.33;;
64738;SDS011;51175;51.186;0.276;2023-12-04T02:04:00;9.18;;;3.05;;
64738;SDS011;51175;51.186;0.276;2023-12-04T02:04:32;9.23;;;3.08;;
64738;SDS011;51175;51.186;0.276;2023-12-04T02:05:02;10.27;;;3.05;;
64738;SDS011;51175;51.186;0.276;2023-12-04T02:05:35;7.97;;;3.20;;
64738;SDS011;51175;51.186;0.276;2023-12-04T02:06:07;10.32;;;3.17;;
64738;SDS011;51175;51.186;0.276;2023-12-04T02:06:40;12.63;;;3.30;;
64738;SDS011;51175;51.186;0.276;2023-12-04T02:07:10;11.38;;;3.45;;
64738;SDS011;51175;51.186;0.276;2023-12-04T02:07:41;12.18;;;3.08;;
64738;SDS011;51175;51.186;0.276;2023-12-04T02:08:11;9.20;;;3.00;;
64738;SDS011;51175;51.186;0.276;2023-12-04T02:08:42;8.27;;;2.97;;
64738;SDS011;51175;51.186;0.276;2023-12-04T02:09:13;8.50;;;3.00;;
64738;SDS011;51175;51.186;0.276;2023-12-04T02:09:46;15.15;;;4.57;;
64738;SDS011;51175;51.186;0.276;2023-12-04T02:10:16;10.35;;;2.78;;
64738;SDS011;51175;51.186;0.276;2023-12-04T02:10:47;11.38;;;3.05;;
64738;SDS011;51175;51.186;0.276;2023-12-04T02:11:17;10.60;;;3.38;;
64738;SDS011;51175;51.186;0.276;2023-12-04T02:11:48;8.52;;;3.40;;
64738;SDS011;51175;51.186;0.276;2023-12-04T02:12:18;11.52;;;2.90;;
64738;SDS011;51175;51.186;0.276;2023-12-04T02:12:49;7.03;;;3.78;;
64738;SDS011;51175;51.186;0.276;2023-12-04T02:13:20;9.02;;;2.72;;
64738;SDS011;51175;51.186;0.276;2023-12-04T02:13:51;10.00;;;2.97;;
64738;SDS011;51175;51.186;0.276;2023-12-04T02:14:22;6.95;;;2.83;;
64738;SDS011;51175;51.186;0.276;2023-12-04T02:14:55;8.82;;;2.88;;
64738;SDS011;51175;51.186;0.276;2023-12-04T02:15:30;9.88;;;2.67;;
64738;SDS011;51175;51.186;0.276;2023-12-04T02:16:02;13.20;;;3.28;;
64738;SDS011;51175;51.186;0.276;2023-12-04T02:16:38;7.43;;;3.20;;
64738;SDS011;51175;51.186;0.276;2023-12-04T02:17:11;8.95;;;3.40;;
64738;SDS011;51175;51.186;0.276;2023-12-04T02:17:44;8.77;;;3.22;;
64738;SDS011;51175;51.186;0.276;2023-12-04T02:18:15;8.02;;;3.20;;
64738;SDS011;51175;51.186;0.276;2023-12-04T02:18:47;8.15;;;3.17;;
64738;SDS011;51175;51.186;0.276;2023-12-04T02:19:18;12.57;;;3.53;;
64738;SDS011;51175;51.186;0.276;2023-12-04T02:19:49;9.95;;;2.97;;
64738;SDS011;51175;51.186;0.276;2023-12-04T02:20:20;8.40;;;3.63;;
64738;SDS011;51175;51.186;0.276;2023-12-04T02:20:51;10.82;;;4.25;;
64738;SDS011;51175;51.186;0.276;2023-12-04T02:21:21;9.07;;;3.42;;
64738;SDS011;51175;51.186;0.276;2023-12-04T02:21:52;7.03;;;2.63;;
64738;SDS011;51175;51.186;0.276;2023-12-04T02:22:22;8.77;;;3.95;;
64738;SDS011;51175;51.186;0.276;2023-12-04T02:22:52;8.63;;;3.28;;
64738;SDS011;51175;51.186;0.276;2023-12-04T02:23:23;13.98;;;3.92;;
64738;SDS011;51175;51.186;0.276;2023-12-04T02:23:54;11.32;;;3.42;;
64738;SDS011;51175;51.186;0.276;2023-12-04T02:24:24;9.18;;;3.00;;
64738;SDS011;51175;51.186;0.276;2023-12-04T02:24:58;11.82;;;4.88;;
64738;SDS011;51175;51.186;0.276;2023-12-04T02:25:31;9.48;;;3.92;;
64738;SDS011;51175;51.186;0.276;2023-12-04T02:26:06;7.28;;;3.20;;
64738;SDS011;51175;51.186;0.276;2023-12-04T02:26:58;9.00;;;2.95;;
64738;SDS011;51175;51.186;0.276;2023-12-04T02:27:44;11.48;;;3.15;;
64738;SDS011;51175;51.186;0.276;2023-12-04T02:28:19;11.07;;;3.20;;
64738;SDS011;51175;51.186;0.276;2023-12-04T02:28:54;12.73;;;3.40;;
64738;SDS011;51175;51.186;0.276;2023-12-04T02:29:39;11.98;;;3.33;;
64738;SDS011;51175;51.186;0.276;2023-12-04T02:30:17;8.00;;;2.70;;
64738;SDS011;51175;51.186;0.276;2023-12-04T02:30:51;7.00;;;3.15;;
64738;SDS011;51175;51.186;0.276;2023-12-04T02:31:22;11.45;;;4.53;;
64738;SDS011;51175;51.186;0.276;2023-12-04T02:31:58;8.15;;;2.67;;
64738;SDS011;51175;51.186;0.276;2023-12-04T02:32:31;18.20;;;4.57;;
64738;SDS011;51175;51.186;0.276;2023-12-04T02:33:06;7.45;;;3.70;;
64738;SDS011;51175;51.186;0.276;2023-12-04T02:33:38;6.22;;;2.95;;
64738;SDS011;51175;51.186;0.276;2023-12-04T02:34:10;7.55;;;2.97;;
64738;SDS011;51175;51.186;0.276;2023-12-04T02:34:45;6.43;;;2.92;;
64738;SDS011;51175;51.186;0.276;2023-12-04T02:35:19;14.55;;;3.33;;
64738;SDS011;51175;51.186;0.276;2023-12-04T02:35:52;8.93;;;2.95;;
64738;SDS011;51175;51.186;0.276;2023-12-04T02:36:25;13.13;;;3.03;;
64738;SDS011;51175;51.186;0.276;2023-12-04T02:36:57;10.25;;;2.92;;
64738;SDS011;51175;51.186;0.276;2023-12-04T02:37:29;11.52;;;3.10;;
64738;SDS011;51175;51.186;0.276;2023-12-04T02:38:00;9.15;;;2.88;;
64738;SDS011;51175;51.186;0.276;2023-12-04T02:38:31;6.78;;;2.78;;
64738;SDS011;51175;51.186;0.276;2023-12-04T02:39:02;7.78;;;3.58;;
64738;SDS011;51175;51.186;0.276;2023-12-04T02:39:33;8.18;;;2.78;;
64738;SDS011;51175;51.186;0.276;2023-12-04T02:40:04;6.43;;;2.50;;
64738;SDS011;51175;51.186;0.276;2023-12-04T02:40:36;8.85;;;3.35;;
64738;SDS011;51175;51.186;0.276;2023-12-04T02:41:07;8.18;;;2.90;;
64738;SDS011;51175;51.186;0.276;2023-12-04T02:41:37;11.45;;;3.30;;
64738;SDS011;51175;51.186;0.276;2023-12-04T02:42:08;8.82;;;2.65;;
64738;SDS011;51175;51.186;0.276;2023-12-04T02:42:39;7.03;;;2.60;;
64738;SDS011;51175;51.186;0.276;2023-12-04T02:43:09;7.10;;;2.42;;
64738;SDS011;51175;51.186;0.276;2023-12-04T02:43:40;5.00;;;1.80;;
64738;SDS011;51175;51.186;0.276;2023-12-04T02:44:11;5.88;;;2.47;;
64738;SDS011;51175;51.186;0.276;2023-12-04T02:44:41;9.02;;;2.92;;
64738;SDS011;51175;51.186;0.276;2023-12-04T02:45:12;10.82;;;3.20;;
64738;SDS011;51175;51.186;0.276;2023-12-04T02:45:42;7.35;;;2.63;;
64738;SDS011;51175;51.186;0.276;2023-12-04T02:46:13;8.90;;;2.72;;
64738;SDS011;51175;51.186;0.276;2023-12-04T02:46:43;11.10;;;2.67;;
64738;SDS011;51175;51.186;0.276;2023-12-04T02:47:15;6.40;;;3.35;;
64738;SDS011;51175;51.186;0.276;2023-12-04T02:47:45;6.57;;;3.30;;
64738;SDS011;51175;51.186;0.276;2023-12-04T02:48:16;8.00;;;2.75;;
64738;SDS011;51175;51.186;0.276;2023-12-04T02:48:46;6.35;;;2.50;;
64738;SDS011;51175;51.186;0.276;2023-12-04T02:49:16;9.82;;;2.33;;
64738;SDS011;51175;51.186;0.276;2023-12-04T02:49:47;6.15;;;2.28;;
64738;SDS011;51175;51.186;0.276;2023-12-04T02:50:17;10.40;;;2.80;;
64738;SDS011;51175;51.186;0.276;2023-12-04T02:50:48;5.20;;;2.20;;
64738;SDS011;51175;51.186;0.276;2023-12-04T02:51:18;5.78;;;2.35;;
64738;SDS011;51175;51.186;0.276;2023-12-04T02:51:49;9.02;;;3.78;;
64738;SDS011;51175;51.186;0.276;2023-12-04T02:52:19;4.75;;;2.35;;
64738;SDS011;51175;51.186;0.276;2023-12-04T02:52:50;6.70;;;3.08;;
64738;SDS011;51175;51.186;0.276;2023-12-04T02:53:21;9.05;;;3.10;;
64738;SDS011;51175;51.186;0.276;2023-12-04T02:53:52;6.78;;;3.08;;
64738;SDS011;51175;51.186;0.276;2023-12-04T02:54:22;5.65;;;2.50;;
64738;SDS011;51175;51.186;0.276;2023-12-04T02:54:53;7.55;;;2.90;;
64738;SDS011;51175;51.186;0.276;2023-12-04T02:55:23;9.60;;;3.45;;
64738;SDS011;51175;51.186;0.276;2023-12-04T02:55:54;6.00;;;2.40;;
64738;SDS011;51175;51.186;0.276;2023-12-04T02:56:24;10.65;;;2.78;;
64738;SDS011;51175;51.186;0.276;2023-12-04T02:56:55;12.02;;;2.88;;
64738;SDS011;51175;51.186;0.276;2023-12-04T02:57:40;10.30;;;2.22;;
64738;SDS011;51175;51.186;0.276;2023-12-04T02:58:14;9.95;;;3.05;;
64738;SDS011;51175;51.186;0.276;2023-12-04T02:58:44;8.70;;;2.92;;
64738;SDS011;51175;51.186;0.276;2023-12-04T02:59:21;9.35;;;2.67;;
64738;SDS011;51175;51.186;0.276;2023-12-04T02:59:51;14.32;;;2.92;;
64738;SDS011;51175;51.186;0.276;2023-12-04T03:00:22;8.80;;;2.65;;
64738;SDS011;51175;51.186;0.276;2023-12-04T03:00:52;11.18;;;3.05;;
64738;SDS011;51175;51.186;0.276;2023-12-04T03:01:23;8.52;;;4.15;;
64738;SDS011;51175;51.186;0.276;2023-12-04T03:01:53;11.15;;;3.20;;
64738;SDS011;51175;51.186;0.276;2023-12-04T03:02:23;9.55;;;2.92;;
64738;SDS011;51175;51.186;0.276;2023-12-04T03:02:54;6.88;;;2.55;;
64738;SDS011;51175;51.186;0.276;2023-12-04T03:03:24;7.53;;;2.83;;
64738;SDS011;51175;51.186;0.276;2023-12-04T03:03:55;7.13;;;2.75;;
64738;SDS011;51175;51.186;0.276;2023-12-04T03:04:26;15.73;;;3.58;;
64738;SDS011;51175;51.186;0.276;2023-12-04T03:04:58;9.93;;;2.95;;
64738;SDS011;51175;51.186;0.276;2023-12-04T03:05:29;11.27;;;2.70;;
64738;SDS011;51175;51.186;0.276;2023-12-04T03:05:59;10.50;;;2.72;;
64738;SDS011;51175;51.186;0.276;2023-12-04T03:06:31;8.13;;;2.72;;
64738;SDS011;51175;51.186;0.276;2023-12-04T03:07:01;7.82;;;2.47;;